US Aviators Van Nuys Flight School Los Angeles Pilot school at Van Nuys Simulator Flight Training Profesional Pilot Instruction Learn to Fly

U.S. Aviators

Learn to fly here! (818) 779-2105

Weather at Van Nuys Airport

Observed:Sat Jul 26, 11:51 PDT
Age:22 min ago
Wind:S at 4 mph
Visibility:10 miles
Clouds:Clear skies
Temperature:88°F (31°C)
Dewpoint:57°F (14°C)
Humidity:35%
Barometer:1015 hPa (29.97 in Hg)

METAR

KVNY 261851Z 17007KT 10SM CLR 31/14 A2997 RMK AO2 SLP140 T03110144